NCAR-RAP Real-Time Weather Data

Output produced by METARs form (26 May 2022  07:47 UTC)
found at http://weather.rap.ucar.edu/surface/
 
KBNA 260734Z 17011KT 10SM FEW016 BKN027 BKN130 OVC190 21/18 A2994 RMK AO2 T02110178
KBNA 260653Z 15009KT 10SM FEW028 BKN041 BKN100 BKN180 21/18 A2992 RMK AO2 SLP127 T02110178
KBNA 260641Z 16009G17KT 10SM FEW020 SCT040 BKN100 BKN130 21/18 A2993 RMK AO2 T02110178
KBNA 260553Z 15011KT 10SM BKN017 BKN060 OVC130 21/18 A2995 RMK AO2 RAE16B19E28 SLP134 P0001 60003 T02110178 10233 20189 402670189 58008
KBNA 260542Z 16010KT 10SM BKN017 BKN060 OVC130 21/18 A2995 RMK AO2 RAE16B19E28 P0001 T02110178
KBNA 260517Z 16009KT 10SM SCT018 SCT075 BKN120 21/18 A2996 RMK AO2 RAE16 P0001 T02060178
KBNA 260453Z 17010KT 10SM -RA BKN018 BKN095 OVC130 21/18 A2997 RMK AO2 RAB18 SLP140 P0000 T02060178
KBNA 260353Z 16008KT 10SM FEW036 BKN130 BKN180 20/17 A2997 RMK AO2 SLP142 T02000167
KBNA 260253Z 17009KT 10SM FEW065 SCT085 BKN130 19/16 A2997 RMK AO2 RAB26E38 SLP143 P0000 60002 T01940161 56005
KBNA 260153Z 17010KT 10SM FEW110 BKN140 19/16 A2998 RMK AO2 RAE00 SLP145 P0000 T01940161
KBNA 260053Z 17009G18KT 10SM -RA FEW038 BKN120 OVC200 19/16 A2997 RMK AO2 PK WND 18035/2354 RAB2357 SLP144 P0002 T01940161
KBNA 252353Z 18013G27KT 10SM SCT026 BKN043 OVC060 23/18 A2999 RMK AO2 PK WND 18034/2353 SLP149 60002 T02330178 10256 20228 53011
KBNA 252253Z 17015G27KT 10SM SCT028 OVC036 24/17 A2997 RMK AO2 PK WND 17028/2236 SLP143 T02390172
KBNA 252153Z 17018G27KT 10SM SCT026 BKN034 OVC200 24/18 A2995 RMK AO2 PK WND 15027/2149 SLP136 T02440178
KBNA 252053Z 17016G23KT 10SM FEW024 SCT033 BKN170 BKN250 25/19 A2995 RMK AO2 PK WND 17026/2038 RAB1954E25 SLP138 P0002 60002 T02500189 58016
KBNA 252027Z 16011KT 9SM SCT023 BKN037 BKN060 BKN200 24/19 A2996 RMK AO2 RAB1954E25 P0002 T02390194
KBNA 251953Z 17014G23KT 9SM BKN021 BKN033 OVC055 24/18 A2998 RMK AO2 PK WND 15027/1952 SLP145 T02390183
KBNA 251853Z 17012G27KT 7SM BKN022 BKN038 OVC055 24/19 A2999 RMK AO2 PK WND 18030/1819 RAB26E48 SLP151 P0000 T02390194
KBNA 251810Z 16017G27KT 10SM BKN020 BKN027 BKN032 25/19 A3000 RMK AO2 PK WND 15027/1807 T02500189
KBNA 251753Z 17017G26KT 10SM SCT020 SCT040 BKN080 OVC200 25/19 A3000 RMK AO2 PK WND 15034/1713 RAB21E39 SLP154 P0000 60000 T02500194 10267 20200 53000
KBNA 251725Z 16018G34KT 10SM -RA SCT027 BKN036 BKN080 OVC250 24/19 A3000 RMK AO2 PK WND 15034/1713 RAB21 P0000 T02440189
KBNA 251653Z 16015G28KT 10SM BKN028 BKN042 BKN049 26/19 A3000 RMK AO2 PK WND 15028/1634 SLP152 T02610189
KBNA 251553Z 16012G22KT 10SM BKN028 BKN040 BKN250 26/18 A2999 RMK AO2 SLP150 T02610183
KBNA 251453Z 17015G22KT 10SM SCT022 SCT040 BKN250 25/18 A3000 RMK AO2 SLP152 T02500183 58009
KBNA 251353Z 16011KT 10SM FEW029 SCT045 SCT200 BKN250 24/18 A3003 RMK AO2 SLP163 T02390183
KBNA 251253Z 16006KT 10SM SCT030 SCT043 BKN250 22/18 A3003 RMK AO2 SLP164 T02170183
KBNA 251153Z 14005KT 10SM SCT085 SCT160 BKN250 20/17 A3003 RMK AO2 SLP162 60047 70135 T02000172 10200 20194 53003
KBNA 251053Z 13005KT 10SM FEW034 SCT150 BKN250 20/17 A3002 RMK AO2 SLP159 T02000172
KBNA 250953Z 11005KT 10SM SCT120 BKN150 20/17 A3001 RMK AO2 SLP157 T02000172
KBNA 250853Z 12005KT 10SM BKN100 OVC130 20/17 A3002 RMK AO2 SLP158 60047 T02000172 55007
KBNA 250753Z 13004KT 10SM VCTS FEW044 BKN070 BKN100 OVC160 20/17 A3001 RMK AO2 LTG DSNT NE RAE45 SLP156 P0016 T02000172
KBNA 250653Z 14006KT 6SM R02L/6000VP6000FT -RA BR FEW025 BKN055 BKN070 20/17 A3002 RMK AO2 LTG DSNT S TSE32 SLP160 OCNL LTGIC DSNT S CB DSNT S P0031 T02000172
KBNA 250633Z 15005KT 6SM R02L/5500VP6000FT -RA BR FEW023 BKN046 BKN070 20/17 A3003 RMK AO2 TSE32 P0023 T02000172
KBNA 250553Z 16011KT 3SM +TSRA BR FEW022 BKN040CB OVC060 20/18 A3004 RMK AO2 RAB05 TSB44 SLP166 OCNL LTGICCC OHD TS OHD MOV NE P0022 60031 T02000178 10233 20200 402720156 54000
KBNA 250544Z 15010KT 3SM TSRA BR SCT031 BKN040CB OVC070 20/18 A3005 RMK AO2 LTG DSNT SW RAB05 TSB44 OCNL LTGICCC OHD TS OHD MOV NE P0015 T02000178
KBNA 250453Z 24005KT 10SM FEW050 BKN060 BKN085 BKN130 21/17 A3004 RMK AO2 RAB35E49 SLP167 P0001 T02060172
KBNA 250353Z 16006KT 10SM BKN080 OVC110 21/18 A3004 RMK AO2 RAE0257 SLP166 P0000 T02060178
KBNA 250253Z 16012KT 10SM -RA BKN040 OVC100 21/17 A3004 RMK AO2 PK WND 15028/0214 LTG DSNT E RAB12 SLP167 P0008 60008 T02110172 53015
KBNA 250235Z 16012KT 5SM RA BR SCT032 BKN045 OVC100 21/17 A3003 RMK AO2 PK WND 15028/0214 LTG DSNT E AND SE RAB12 P0008 T02110172
KBNA 250227Z 18016G27KT 2 1/2SM +RA BR BKN035 BKN047 OVC085 22/17 A3003 RMK AO2 PK WND 15028/0214 LTG DSNT E AND SE RAB12 P0003 T02170172
KBNA 250153Z 13004KT 10SM SCT070 BKN090 OVC110 23/19 A3000 RMK AO2 SLP155 T02280189
KBNA 250053Z 07003KT 10SM BKN100 OVC250 23/19 A3000 RMK AO2 SLP153 T02280194
KBNA 242353Z 13003KT 10SM FEW050 SCT080 OVC100 23/19 A2999 RMK AO2 SLP152 P0001 60057 T02280194 10272 20206 51002
KBNA 242253Z 00000KT 10SM SCT070 OVC095 23/19 A2999 RMK AO2 RAE11 SLP152 P0000 T02280189
KBNA 242153Z 18008KT 6SM -RA BR BKN032 BKN050 OVC075 22/19 A3000 RMK AO2 PK WND 20040/2125 LTG DSNT NW RAB26 TSB26E50 SLP155 CB DSNT N P0056 T02170189
KBNA 242142Z 18011G17KT 4SM R02L/2000VP6000FT -TSRA BR SCT020CB BKN040 OVC080 22/18 A3000 RMK AO2 PK WND 20040/2125 LTG DSNT NW RAB26 TSB26 OCNL LTGIC OHD TS OHD MOV NE P0056 T02170183
KBNA 242126Z COR 21022G40KT 3/4SM R02L/2000VP6000FT +TSRA BR BKN033CB BKN049 OVC080 24/17 A3002 RMK AO2 PK WND 20040/2125 RAB26 TSB26 PRESRR OCNL LTGIC OHD TS OHD MOV NE P0000 T02390172
KBNA 242053Z 09008KT 10SM SCT039 BKN048 BKN100 26/17 A2999 RMK AO2 LTG DSNT SW SLP149 T02610167 57029
KBNA 241953Z 10008KT 10SM SCT055 SCT110 BKN250 27/17 A3002 RMK AO2 SLP160 T02720167
KBNA 241853Z 07008KT 10SM FEW026 SCT040 BKN250 26/16 A3004 RMK AO2 SLP168 T02560161
KBNA 241753Z 12005KT 10SM SCT022 BKN200 BKN250 23/16 A3008 RMK AO2 SLP180 T02330156 10233 20161 55013
KBNA 241716Z 11007KT 10SM SCT017 BKN150 BKN250 22/15 A3009 RMK AO2 T02220150
KBNA 241653Z 10006KT 10SM BKN015 BKN140 21/15 A3008 RMK AO2 SLP180 T02110150
KBNA 241553Z 09005KT 10SM OVC012 19/14 A3011 RMK AO2 SLP191 T01940139
KBNA 241536Z 10006KT 10SM OVC010 19/14 A3011 RMK AO2 T01890139
KBNA 241453Z 11005KT 10SM OVC009 18/14 A3012 RMK AO2 SLP194 T01830139 56006
KBNA 241421Z 10005KT 10SM OVC009 18/13 A3013 RMK AO2 T01780133
KBNA 241353Z 11006KT 10SM OVC010 17/13 A3012 RMK AO2 SLP197 T01720133
KBNA 241253Z 16005KT 10SM OVC009 17/13 A3013 RMK AO2 SLP201 T01670128
KBNA 241153Z 10005KT 10SM OVC007 16/13 A3011 RMK AO2 SLP193 T01610128 10161 20156 50011
KBNA 241053Z 09004KT 10SM OVC007 16/13 A3011 RMK AO2 SLP194 T01610128
KBNA 240953Z 04005KT 10SM OVC007 16/12 A3010 RMK AO2 SLP189 T01610122
KBNA 240853Z 08006KT 10SM OVC007 16/13 A3008 RMK AO2 SLP182 T01610128 55010
KBNA 240753Z 05005KT 10SM OVC008 16/12 A3007 RMK AO2 SLP180 T01560122